Time;durP1;ratioP1;P1;durP2;ratioP2;P2;SDS_P1;SDS_P2;PMS_P1;PMS_P2;Temp;Humidity;BMP_temperature;BMP_pressure;BME280_temperature;BME280_humidity;BME280_pressure;Samples;Min_cycle;Max_cycle;Signal;HPM_P1;HPM_P2
2023/06/01 00:01:33;;;;;;;31.08;10.63;;;;;;;-144.73;100.00;54296.88;5106521;28;20050;-70
2023/06/01 00:04:01;;;;;;;36.47;11.23;;;;;;;-144.73;100.00;54321.50;5110476;28;20032;-70
2023/06/01 00:06:30;;;;;;;29.65;10.95;;;;;;;-144.73;100.00;54300.97;5107098;28;20112;-70
2023/06/01 00:08:58;;;;;;;35.53;11.60;;;;;;;-144.73;100.00;54325.59;5111419;28;20101;-70
2023/06/01 00:11:25;;;;;;;34.55;10.10;;;;;;;-144.73;100.00;54300.97;5110222;28;20020;-70
2023/06/01 00:13:50;;;;;;;32.92;10.13;;;;;;;-144.73;100.00;54296.88;5110389;28;20028;-70
2023/06/01 00:16:17;;;;;;;36.97;11.68;;;;;;;-144.73;100.00;54329.72;5107614;28;20475;-70
2023/06/01 00:18:42;;;;;;;43.00;11.68;;;;;;;-144.73;100.00;54325.59;5107752;28;20016;-70
2023/06/01 00:21:08;;;;;;;25.27;9.93;;;;;;;-144.73;100.00;54313.28;5110813;28;21146;-70
2023/06/01 00:23:36;;;;;;;36.83;11.85;;;;;;;-144.73;100.00;54329.72;5109966;28;20054;-70
2023/06/01 00:26:02;;;;;;;32.95;9.43;;;;;;;-144.73;100.00;54292.75;5104066;28;20026;-70
2023/06/01 00:28:28;;;;;;;28.00;9.88;;;;;;;-144.73;100.00;54344.06;5110192;28;20035;-70
2023/06/01 00:30:53;;;;;;;29.45;8.73;;;;;;;-144.73;100.00;54333.81;5109788;28;20028;-70
2023/06/01 00:33:20;;;;;;;37.65;9.02;;;;;;;-144.73;100.00;54315.34;5109728;28;20233;-70
2023/06/01 00:35:46;;;;;;;28.38;9.32;;;;;;;-144.73;100.00;54292.75;5110815;28;20027;-70
2023/06/01 00:38:11;;;;;;;28.67;9.13;;;;;;;-144.73;100.00;54321.50;5109591;28;20038;-70
2023/06/01 00:40:37;;;;;;;29.15;9.63;;;;;;;-144.73;100.00;54313.28;5110383;28;20024;-70
2023/06/01 00:43:02;;;;;;;35.78;11.93;;;;;;;-144.73;100.00;54303.03;5109180;28;20088;-70
2023/06/01 00:45:27;;;;;;;32.45;11.75;;;;;;;-144.73;100.00;54321.50;5110424;28;20019;-73
2023/06/01 00:47:53;;;;;;;27.45;11.02;;;;;;;-144.73;100.00;54309.19;5110342;28;20032;-73
2023/06/01 00:50:19;;;;;;;27.13;11.85;;;;;;;-144.73;100.00;54288.66;5110465;28;20035;-72
2023/06/01 00:52:45;;;;;;;42.50;12.48;;;;;;;-144.73;100.00;54337.91;5109329;28;20035;-73
2023/06/01 00:55:11;;;;;;;38.00;12.65;;;;;;;-144.73;100.00;54298.91;5110886;28;20030;-73
2023/06/01 00:57:39;;;;;;;27.20;11.60;;;;;;;-144.73;100.00;54350.22;5111449;28;20035;-72
2023/06/01 01:00:14;;;;;;;28.63;12.15;;;;;;;-144.73;100.00;54325.59;5110848;28;20087;-73
2023/06/01 01:02:41;;;;;;;41.45;14.18;;;;;;;-144.73;100.00;54296.88;5111173;27;20031;-73
2023/06/01 01:05:11;;;;;;;27.35;13.27;;;;;;;-144.73;100.00;54266.06;5106494;28;20027;-73
2023/06/01 01:08:02;;;;;;;39.85;14.05;;;;;;;-144.73;100.00;54305.06;5109666;28;20063;-73
2023/06/01 01:10:37;;;;;;;27.10;13.43;;;;;;;-144.73;100.00;54346.13;5100407;28;20040;-73
2023/06/01 01:13:17;;;;;;;35.88;12.68;;;;;;;-144.73;100.00;54259.91;5089791;28;20088;-73
2023/06/01 01:16:01;;;;;;;26.50;13.80;;;;;;;-144.73;100.00;54296.88;5108661;28;20035;-73
2023/06/01 01:18:36;;;;;;;24.02;12.63;;;;;;;-144.73;100.00;54342.03;5108603;28;20149;-73
2023/06/01 01:21:21;;;;;;;27.65;14.15;;;;;;;-144.73;100.00;54288.66;5109644;28;20043;-73
2023/06/01 01:24:11;;;;;;;32.35;13.48;;;;;;;-144.73;100.00;54321.50;5103213;28;20035;-74
2023/06/01 01:27:05;;;;;;;35.28;14.43;;;;;;;-144.73;100.00;54313.28;5110649;28;20027;-73
2023/06/01 01:29:32;;;;;;;27.90;13.05;;;;;;;-144.73;100.00;54296.88;5100502;28;20015;-73
2023/06/01 01:32:00;;;;;;;30.90;11.45;;;;;;;-144.73;100.00;54325.59;5108410;28;20047;-73
2023/06/01 01:34:28;;;;;;;31.75;12.10;;;;;;;-144.73;100.00;54342.03;5109878;28;20046;-73
2023/06/01 01:36:54;;;;;;;36.40;12.65;;;;;;;-144.73;100.00;54354.34;5102257;28;20433;-73
2023/06/01 01:39:19;;;;;;;26.02;11.20;;;;;;;-144.73;100.00;54329.72;5110213;28;20027;-74
2023/06/01 01:41:45;;;;;;;34.40;11.45;;;;;;;-144.73;100.00;54288.66;5100752;28;20031;-72
2023/06/01 01:44:10;;;;;;;30.02;11.60;;;;;;;-144.73;100.00;54303.03;5109454;28;20052;-73
2023/06/01 01:46:54;;;;;;;26.92;10.40;;;;;;;-144.73;100.00;54313.28;5105439;28;20027;-73
2023/06/01 01:49:36;;;;;;;28.13;10.18;;;;;;;-144.73;100.00;54317.38;5096680;28;20428;-73
2023/06/01 01:52:11;;;;;;;;;;;;;;;-144.73;100.00;54288.66;5095344;28;20351;-73
2023/06/01 01:54:44;;;;;;;23.85;9.77;;;;;;;-144.73;100.00;54317.38;5115300;27;19966;-73
2023/06/01 01:57:13;;;;;;;37.42;10.32;;;;;;;-144.73;100.00;54333.81;5082739;28;20047;-73
2023/06/01 01:59:40;;;;;;;33.97;9.88;;;;;;;-144.73;100.00;54333.81;5091543;28;20111;-73
2023/06/01 02:02:06;;;;;;;32.80;10.23;;;;;;;-144.73;100.00;54321.50;5097814;28;20032;-73
2023/06/01 02:04:31;;;;;;;36.42;9.85;;;;;;;-144.73;100.00;54313.28;5100706;28;20038;-74
2023/06/01 02:06:56;;;;;;;24.55;10.43;;;;;;;-144.73;100.00;54317.38;5080888;28;20080;-73
2023/06/01 02:09:22;;;;;;;35.15;12.05;;;;;;;-144.73;100.00;54300.97;5096545;28;20047;-74
2023/06/01 02:11:47;;;;;;;22.17;10.80;;;;;;;-144.73;100.00;54288.66;5082102;28;20039;-74
2023/06/01 02:14:12;;;;;;;34.50;10.80;;;;;;;-144.73;100.00;54346.13;5071913;28;20024;-73
2023/06/01 02:16:38;;;;;;;31.88;12.70;;;;;;;-144.73;100.00;54321.50;5098268;28;20085;-73
2023/06/01 02:19:03;;;;;;;37.25;13.27;;;;;;;-144.73;100.00;54350.22;5079358;28;20079;-73
2023/06/01 02:21:29;;;;;;;37.13;12.10;;;;;;;-144.73;100.00;54321.50;5097541;28;20023;-73
2023/06/01 02:23:54;;;;;;;38.25;12.23;;;;;;;-144.73;100.00;54292.75;5090536;28;20031;-73
2023/06/01 02:26:21;;;;;;;38.28;12.73;;;;;;;-144.73;100.00;54288.66;5091517;28;20055;-74
2023/06/01 02:28:46;;;;;;;36.75;12.88;;;;;;;-144.73;100.00;54319.44;5094159;28;20036;-73
2023/06/01 02:31:14;;;;;;;25.38;12.32;;;;;;;-144.73;100.00;54325.59;5091429;28;20034;-73
2023/06/01 02:33:39;;;;;;;38.92;13.20;;;;;;;-144.73;100.00;54264.03;5090369;28;20032;-73
2023/06/01 02:36:05;;;;;;;38.13;13.25;;;;;;;-144.73;100.00;54276.34;5081099;28;20111;-74
2023/06/01 02:38:30;;;;;;;28.05;11.38;;;;;;;-144.73;100.00;54284.56;5078507;28;20093;-74
2023/06/01 02:40:55;;;;;;;37.08;12.23;;;;;;;-144.73;100.00;54300.97;5106556;28;20088;-73
2023/06/01 02:43:21;;;;;;;39.35;12.95;;;;;;;-144.73;100.00;54321.50;5072956;28;20032;-73
2023/06/01 02:45:46;;;;;;;36.42;12.27;;;;;;;-144.73;100.00;54296.88;5099780;28;20032;-73
2023/06/01 02:48:12;;;;;;;36.03;11.95;;;;;;;-144.73;100.00;54337.91;5086237;28;20032;-73
2023/06/01 02:50:38;;;;;;;35.20;11.15;;;;;;;-144.73;100.00;54317.38;5083802;28;20035;-73
2023/06/01 02:53:04;;;;;;;31.42;10.63;;;;;;;-144.73;100.00;54300.97;5072208;28;20077;-72
2023/06/01 02:55:30;;;;;;;38.40;11.00;;;;;;;-144.73;100.00;54342.03;5088025;28;20024;-73
2023/06/01 02:57:55;;;;;;;36.70;10.00;;;;;;;-144.73;100.00;54354.34;5071244;28;20067;-73
2023/06/01 03:00:21;;;;;;;27.15;10.45;;;;;;;-144.73;100.00;54321.50;5071660;28;20039;-73
2023/06/01 03:02:47;;;;;;;23.27;10.13;;;;;;;-144.73;100.00;54313.28;5105746;28;20126;-73
2023/06/01 03:05:14;;;;;;;33.50;11.73;;;;;;;-144.73;100.00;54354.34;5080395;28;20035;-73
2023/06/01 03:07:46;;;;;;;30.70;10.43;;;;;;;-144.73;100.00;54296.88;5074484;28;20028;-73
2023/06/01 03:10:12;;;;;;;30.52;11.40;;;;;;;-144.73;100.00;54300.97;5084478;28;20047;-72
2023/06/01 03:12:38;;;;;;;22.10;9.65;;;;;;;-144.73;100.00;54337.91;5082436;28;20032;-73
2023/06/01 03:15:04;;;;;;;25.38;10.15;;;;;;;-144.73;100.00;54309.19;5086005;28;20083;-72
2023/06/01 03:17:30;;;;;;;28.88;10.38;;;;;;;-144.73;100.00;54317.38;5096726;28;20149;-73
2023/06/01 03:19:55;;;;;;;29.27;11.18;;;;;;;-144.73;100.00;54292.75;5099053;28;20107;-72
2023/06/01 03:22:21;;;;;;;35.05;10.88;;;;;;;-144.73;100.00;54280.44;5076781;28;20390;-73
2023/06/01 03:24:49;;;;;;;30.90;11.27;;;;;;;-144.73;100.00;54309.19;5071351;28;20023;-72
2023/06/01 03:27:19;;;;;;;25.23;9.38;;;;;;;-144.73;100.00;54300.97;5104850;28;20030;-73
2023/06/01 03:29:45;;;;;;;40.38;10.88;;;;;;;-144.73;100.00;54309.19;5091251;28;20081;-73
2023/06/01 03:32:10;;;;;;;30.42;11.05;;;;;;;-144.73;100.00;54309.19;5074152;28;20036;-73
2023/06/01 03:34:36;;;;;;;24.95;10.43;;;;;;;-144.73;100.00;54307.13;5075215;28;20454;-73
2023/06/01 03:37:04;;;;;;;28.65;10.85;;;;;;;-144.73;100.00;54346.13;5092505;28;20040;-73
2023/06/01 03:39:33;;;;;;;33.83;10.27;;;;;;;-144.73;100.00;54294.81;5075038;28;20024;-73
2023/06/01 03:41:58;;;;;;;37.45;10.00;;;;;;;-144.73;100.00;54313.28;5082617;28;20034;-70
2023/06/01 03:44:24;;;;;;;30.63;9.93;;;;;;;-144.73;100.00;54300.97;5087060;28;20019;-70
2023/06/01 03:46:50;;;;;;;43.92;9.00;;;;;;;-144.73;100.00;54329.72;5090775;28;20036;-70
2023/06/01 03:49:15;;;;;;;35.22;7.50;;;;;;;-144.73;100.00;54329.72;5086270;28;20023;-70
2023/06/01 03:51:40;;;;;;;28.10;7.30;;;;;;;-144.73;100.00;54333.81;5095590;28;20028;-73
2023/06/01 03:54:06;;;;;;;26.13;8.30;;;;;;;-144.73;100.00;54292.75;5076217;28;20089;-73
2023/06/01 03:56:31;;;;;;;25.30;8.32;;;;;;;-144.73;100.00;54284.56;5089263;28;20103;-73
2023/06/01 03:58:58;;;;;;;23.88;7.65;;;;;;;-144.73;100.00;54342.03;5081918;28;20109;-73
2023/06/01 04:01:23;;;;;;;32.90;10.30;;;;;;;-144.73;100.00;54305.06;5098059;28;20019;-73
2023/06/01 04:03:48;;;;;;;33.75;10.20;;;;;;;-144.73;100.00;54337.91;5076321;28;20115;-73
2023/06/01 04:06:17;;;;;;;32.20;9.95;;;;;;;-144.73;100.00;54329.72;5101811;28;20023;-73
2023/06/01 04:08:48;;;;;;;29.88;10.50;;;;;;;-144.73;100.00;54284.56;5101258;28;20518;-73
2023/06/01 04:11:17;;;;;;;37.97;10.48;;;;;;;-144.73;100.00;54325.59;5073598;28;20016;-74
2023/06/01 04:13:43;;;;;;;35.22;9.13;;;;;;;-144.73;100.00;54305.06;5108859;27;20039;-74
2023/06/01 04:16:09;;;;;;;29.33;10.18;;;;;;;-144.73;100.00;54333.81;5127361;27;20027;-74
2023/06/01 04:18:35;;;;;;;36.35;9.30;;;;;;;-144.73;100.00;54321.50;5099621;28;20033;-73
2023/06/01 04:21:00;;;;;;;34.03;10.27;;;;;;;-144.73;100.00;54337.91;5109510;27;20019;-74
2023/06/01 04:23:26;;;;;;;41.58;10.20;;;;;;;-144.73;100.00;54333.81;5103291;28;20109;-73
2023/06/01 04:25:51;;;;;;;23.63;8.88;;;;;;;-144.73;100.00;54264.03;5102998;27;20024;-74
2023/06/01 04:28:17;;;;;;;29.52;8.07;;;;;;;-144.73;100.00;54358.44;5112010;27;20028;-73
2023/06/01 04:30:44;;;;;;;24.13;7.95;;;;;;;-144.73;100.00;54309.19;5127829;27;20072;-74
2023/06/01 04:33:10;;;;;;;32.22;7.80;;;;;;;-144.73;100.00;54362.53;5113764;27;20032;-73
2023/06/01 04:35:38;;;;;;;29.48;9.18;;;;;;;-144.73;100.00;54350.22;5096482;28;20016;-74
2023/06/01 04:38:04;;;;;;;28.25;8.60;;;;;;;-144.73;100.00;54288.66;5085750;28;20035;-73
2023/06/01 04:40:29;;;;;;;32.75;7.82;;;;;;;-144.73;100.00;54350.22;5081867;28;20053;-74
2023/06/01 04:42:57;;;;;;;27.90;7.70;;;;;;;-144.73;100.00;54325.59;5078203;28;20036;-74
2023/06/01 04:45:25;;;;;;;34.95;8.15;;;;;;;-144.73;100.00;54321.50;5066585;28;20442;-74
2023/06/01 04:47:51;;;;;;;29.40;7.80;;;;;;;-144.73;100.00;54309.19;5084600;28;20029;-73
2023/06/01 04:50:17;;;;;;;33.17;8.32;;;;;;;-144.73;100.00;54309.19;5091661;28;20020;-73
2023/06/01 04:52:43;;;;;;;33.83;8.15;;;;;;;-144.73;100.00;54284.56;5073708;28;20058;-74
2023/06/01 04:55:09;;;;;;;22.40;7.55;;;;;;;-144.73;100.00;54329.72;5088991;28;20059;-74
2023/06/01 04:57:44;;;;;;;30.85;7.53;;;;;;;-144.73;100.00;54325.59;5100905;28;20067;-73
2023/06/01 05:00:13;;;;;;;25.38;7.40;;;;;;;-144.73;100.00;54284.56;5083877;28;20088;-74
2023/06/01 05:02:43;;;;;;;41.67;8.55;;;;;;;-144.73;100.00;54374.84;5093758;28;20077;-74
2023/06/01 05:05:09;;;;;;;41.03;9.18;;;;;;;-144.73;100.00;54305.06;5065291;28;20032;-73
2023/06/01 05:07:36;;;;;;;29.38;7.15;;;;;;;-144.73;100.00;54313.28;5070444;28;20027;-74
2023/06/01 05:10:05;;;;;;;25.15;8.07;;;;;;;-144.73;100.00;54319.44;5081717;28;20043;-73
2023/06/01 05:12:31;;;;;;;26.38;7.47;;;;;;;-144.73;100.00;54300.97;5074482;28;20043;-74
2023/06/01 05:14:56;;;;;;;31.00;7.75;;;;;;;-144.73;100.00;54337.91;5080085;28;20023;-73
2023/06/01 05:17:22;;;;;;;36.88;8.13;;;;;;;-144.73;100.00;54325.59;5088330;28;20024;-73
2023/06/01 05:19:47;;;;;;;32.50;6.97;;;;;;;-144.73;100.00;54321.50;5095905;28;20019;-74
2023/06/01 05:22:13;;;;;;;24.42;5.82;;;;;;;-144.73;100.00;54350.22;5098957;28;20032;-74
2023/06/01 05:24:38;;;;;;;26.40;6.38;;;;;;;-144.73;100.00;54337.91;5097458;28;20012;-73
2023/06/01 05:27:04;;;;;;;28.65;6.80;;;;;;;-144.73;100.00;54321.50;5097048;28;20036;-74
2023/06/01 05:29:30;;;;;;;24.25;6.00;;;;;;;-144.73;100.00;54329.72;5091140;28;20031;-74
2023/06/01 05:31:55;;;;;;;28.52;7.57;;;;;;;-144.73;100.00;54317.38;5091242;28;20043;-73
2023/06/01 05:34:22;;;;;;;29.25;6.88;;;;;;;-144.73;100.00;54329.72;5094710;28;20028;-74
2023/06/01 05:36:48;;;;;;;29.10;6.80;;;;;;;-144.73;100.00;54362.53;5097635;28;20063;-74
2023/06/01 05:39:14;;;;;;;21.80;6.57;;;;;;;-144.73;100.00;54325.59;5096166;28;20026;-74
2023/06/01 05:41:40;;;;;;;25.67;5.97;;;;;;;-144.73;100.00;54296.88;5102331;28;20031;-74
2023/06/01 05:44:06;;;;;;;27.20;6.72;;;;;;;-144.73;100.00;54337.91;5099031;28;20026;-73
2023/06/01 05:46:31;;;;;;;31.10;6.50;;;;;;;-144.73;100.00;54321.50;5088151;28;20023;-74
2023/06/01 05:48:57;;;;;;;19.60;5.47;;;;;;;-144.73;100.00;54350.22;5096795;28;20031;-74
2023/06/01 05:51:22;;;;;;;28.30;7.45;;;;;;;-144.73;100.00;54296.88;5093640;28;20020;-74
2023/06/01 05:53:48;;;;;;;35.50;9.32;;;;;;;-144.73;100.00;54358.44;5098004;28;20019;-74
2023/06/01 05:56:13;;;;;;;30.45;7.97;;;;;;;-144.73;100.00;54309.19;5097406;28;20029;-75
2023/06/01 05:58:39;;;;;;;27.58;6.25;;;;;;;-144.73;100.00;54311.22;5090472;28;20115;-75
2023/06/01 06:01:04;;;;;;;32.42;7.40;;;;;;;-144.73;100.00;54307.13;5095611;28;20047;-73
2023/06/01 06:03:30;;;;;;;26.20;6.72;;;;;;;-144.73;100.00;54329.72;5097072;28;20040;-73
2023/06/01 06:05:55;;;;;;;29.02;5.97;;;;;;;-144.73;100.00;54303.03;5086814;28;20049;-73
2023/06/01 06:08:21;;;;;;;26.40;6.80;;;;;;;-144.73;100.00;54292.75;5093786;28;20105;-73
2023/06/01 06:10:46;;;;;;;18.25;5.97;;;;;;;-144.73;100.00;54309.19;5093018;28;20046;-73
2023/06/01 06:13:13;;;;;;;19.38;6.18;;;;;;;-144.73;100.00;54323.53;5091412;28;20509;-73
2023/06/01 06:15:38;;;;;;;24.92;5.95;;;;;;;-144.73;100.00;54296.88;5093184;28;20019;-73
2023/06/01 06:18:04;;;;;;;31.23;6.82;;;;;;;-144.73;100.00;54313.28;5096023;28;20042;-73
2023/06/01 06:20:29;;;;;;;29.08;6.78;;;;;;;-144.73;100.00;54350.22;5096625;28;20051;-73
2023/06/01 06:22:55;;;;;;;29.33;6.13;;;;;;;-144.73;100.00;54290.72;5096508;28;20036;-73
2023/06/01 06:25:20;;;;;;;20.60;6.13;;;;;;;-144.73;100.00;54317.38;5090197;28;20019;-73
2023/06/01 06:27:46;;;;;;;17.45;6.05;;;;;;;-144.73;100.00;54337.91;5096213;28;20067;-73
2023/06/01 06:30:12;;;;;;;28.15;6.75;;;;;;;-144.73;100.00;54292.75;5102217;28;20023;-73
2023/06/01 06:32:37;;;;;;;23.10;6.43;;;;;;;-144.73;100.00;54358.44;5091579;28;20086;-73
2023/06/01 06:35:03;;;;;;;21.42;5.10;;;;;;;-144.73;100.00;54292.75;5104823;28;20024;-73
2023/06/01 06:37:30;;;;;;;30.02;5.82;;;;;;;-144.73;100.00;54342.03;5088144;28;20038;-73
2023/06/01 06:39:55;;;;;;;21.05;5.18;;;;;;;-144.73;100.00;54333.81;5088981;28;20028;-73
2023/06/01 06:42:21;;;;;;;32.75;5.30;;;;;;;-144.73;100.00;54298.91;5092248;28;20060;-73
2023/06/01 06:44:46;;;;;;;20.52;4.78;;;;;;;-144.73;100.00;54342.03;5093826;28;20440;-73
2023/06/01 06:47:18;;;;;;;23.90;4.82;;;;;;;-144.73;100.00;54309.19;5099992;28;20036;-74
2023/06/01 06:49:44;;;;;;;22.35;5.32;;;;;;;-144.73;100.00;54286.59;5093185;28;20020;-73
2023/06/01 06:52:10;;;;;;;23.35;5.18;;;;;;;-144.73;100.00;54333.81;5090926;28;20118;-73
2023/06/01 06:54:38;;;;;;;26.65;5.80;;;;;;;-144.73;100.00;54329.72;5090312;28;20114;-73
2023/06/01 06:57:04;;;;;;;22.52;5.82;;;;;;;-144.73;100.00;54346.13;5095023;28;20044;-73
2023/06/01 06:59:30;;;;;;;20.52;4.90;;;;;;;-144.73;100.00;54331.75;5087684;28;20102;-73
2023/06/01 07:01:55;;;;;;;27.83;6.80;;;;;;;-144.73;100.00;54327.66;5092349;28;20065;-74
2023/06/01 07:04:21;;;;;;;31.23;6.38;;;;;;;-144.73;100.00;54333.81;5092576;28;20024;-75
2023/06/01 07:06:46;;;;;;;35.40;6.70;;;;;;;-144.73;100.00;54325.59;5099933;28;20028;-75
2023/06/01 07:09:11;;;;;;;29.35;6.35;;;;;;;-144.73;100.00;54305.06;5092962;28;20024;-75
2023/06/01 07:11:37;;;;;;;42.55;6.35;;;;;;;-144.73;100.00;54313.28;5099918;28;20038;-75
2023/06/01 07:14:02;;;;;;;17.50;5.70;;;;;;;-144.73;100.00;54333.81;5105954;28;20033;-75
2023/06/01 07:16:29;;;;;;;24.90;6.45;;;;;;;-144.73;100.00;54335.88;5101261;27;20083;-75
2023/06/01 07:18:54;;;;;;;26.60;5.82;;;;;;;-144.73;100.00;54321.50;5101214;28;20024;-75
2023/06/01 07:21:20;;;;;;;16.90;4.50;;;;;;;-144.73;100.00;54292.75;5110182;27;20183;-75
2023/06/01 07:23:46;;;;;;;18.23;4.53;;;;;;;-144.73;100.00;54284.56;5105226;28;20020;-75
2023/06/01 07:26:11;;;;;;;16.02;4.10;;;;;;;-144.73;100.00;54337.91;5086603;27;20024;-74
2023/06/01 07:28:36;;;;;;;18.13;4.82;;;;;;;-144.73;100.00;54337.91;5067174;28;20038;-73
2023/06/01 07:31:03;;;;;;;22.80;4.45;;;;;;;-144.73;100.00;54311.22;5081844;28;20469;-74
2023/06/01 07:33:28;;;;;;;24.70;4.78;;;;;;;-144.73;100.00;54364.59;5077344;28;20116;-76
2023/06/01 07:35:54;;;;;;;23.58;5.68;;;;;;;-144.73;100.00;54342.03;5085461;28;20114;-76
2023/06/01 07:38:20;;;;;;;19.05;4.25;;;;;;;-144.73;100.00;54321.50;5102444;28;20054;-74
2023/06/01 07:40:46;;;;;;;16.90;4.97;;;;;;;-144.73;100.00;54317.38;5084809;28;20055;-74
2023/06/01 07:43:11;;;;;;;26.23;4.57;;;;;;;-144.73;100.00;54296.88;5091815;28;20031;-74
2023/06/01 07:45:39;;;;;;;36.72;5.53;;;;;;;-144.73;100.00;54325.59;5090737;28;20053;-74
2023/06/01 07:48:05;;;;;;;21.10;5.38;;;;;;;-144.73;100.00;54350.22;5093627;28;20039;-75
2023/06/01 07:50:30;;;;;;;20.83;4.88;;;;;;;-144.73;100.00;54346.13;5094218;28;20020;-74
2023/06/01 07:52:57;;;;;;;23.42;5.20;;;;;;;-144.73;100.00;54303.03;5089214;28;20036;-74
2023/06/01 07:55:23;;;;;;;23.67;4.72;;;;;;;-144.73;100.00;54307.13;5093464;28;20016;-74
2023/06/01 07:57:48;;;;;;;22.67;5.70;;;;;;;-144.73;100.00;54333.81;5081644;27;20040;-75
2023/06/01 08:00:17;;;;;;;21.67;5.35;;;;;;;-144.73;100.00;54280.44;5091501;28;20027;-74
2023/06/01 08:02:42;;;;;;;28.30;5.00;;;;;;;-144.73;100.00;54292.75;5090626;28;20046;-74
2023/06/01 08:05:10;;;;;;;16.15;4.95;;;;;;;-144.73;100.00;54317.38;5085454;28;20032;-74
2023/06/01 08:07:37;;;;;;;30.23;5.15;;;;;;;-144.73;100.00;54305.06;5091998;28;20035;-74
2023/06/01 08:10:05;;;;;;;19.40;5.15;;;;;;;-144.73;100.00;54321.50;5091981;28;20118;-75
2023/06/01 08:12:31;;;;;;;19.40;4.50;;;;;;;-144.73;100.00;54321.50;5094882;28;20039;-75
2023/06/01 08:14:57;;;;;;;29.67;6.10;;;;;;;-144.73;100.00;54288.66;5086672;28;20035;-74
2023/06/01 08:17:23;;;;;;;26.20;4.53;;;;;;;-144.73;100.00;54300.97;5093393;28;20032;-74
2023/06/01 08:19:49;;;;;;;20.30;4.82;;;;;;;-144.73;100.00;54309.19;5096773;28;20118;-74
2023/06/01 08:22:15;;;;;;;21.40;4.55;;;;;;;-144.73;100.00;54325.59;5083705;28;20150;-75
2023/06/01 08:24:40;;;;;;;34.58;4.60;;;;;;;-144.73;100.00;54348.19;5086251;28;20129;-74
2023/06/01 08:27:20;;;;;;;20.73;5.80;;;;;;;-144.73;100.00;54335.88;5082192;28;20044;-75
2023/06/01 08:29:47;;;;;;;22.65;5.30;;;;;;;-144.73;100.00;54325.59;5081310;28;20083;-74
2023/06/01 08:32:12;;;;;;;23.52;5.80;;;;;;;-144.73;100.00;54337.91;5086722;28;20036;-74
2023/06/01 08:34:38;;;;;;;22.77;5.50;;;;;;;-144.73;100.00;54321.50;5092542;28;20020;-74
2023/06/01 08:37:03;;;;;;;18.98;4.57;;;;;;;-144.73;100.00;54342.03;5094542;28;20042;-75
2023/06/01 08:39:29;;;;;;;18.42;5.32;;;;;;;-144.73;100.00;54317.38;5090617;28;20028;-74
2023/06/01 08:42:29;;;;;;;19.95;4.93;;;;;;;-144.73;100.00;54303.03;5094773;28;20028;-75
2023/06/01 08:44:57;;;;;;;22.65;5.75;;;;;;;-144.73;100.00;54319.44;5091341;28;20345;-74
2023/06/01 08:47:25;;;;;;;28.38;6.15;;;;;;;-144.73;100.00;54358.44;5097717;28;20048;-74
2023/06/01 08:49:52;;;;;;;28.85;6.25;;;;;;;-144.73;100.00;54350.22;5094544;28;20032;-74
2023/06/01 08:52:20;;;;;;;26.45;5.07;;;;;;;-144.73;100.00;54284.56;5093836;28;20517;-75
2023/06/01 08:54:46;;;;;;;17.77;5.20;;;;;;;-144.73;100.00;54296.88;5099162;28;20064;-74
2023/06/01 08:57:12;;;;;;;29.23;4.93;;;;;;;-144.73;100.00;54329.72;5093402;28;20070;-74
2023/06/01 08:59:38;;;;;;;23.75;5.78;;;;;;;-144.73;100.00;54325.59;5092857;28;20073;-74
2023/06/01 09:02:04;;;;;;;22.17;5.53;;;;;;;-144.73;100.00;54292.75;5090627;28;20032;-75
2023/06/01 09:04:32;;;;;;;26.90;5.72;;;;;;;-144.73;100.00;54294.81;5099461;28;20016;-75
2023/06/01 09:06:57;;;;;;;17.55;5.72;;;;;;;-144.73;100.00;54317.38;5084848;28;20065;-75
2023/06/01 09:09:23;;;;;;;29.65;6.07;;;;;;;-144.73;100.00;54325.59;5083622;28;20028;-74
2023/06/01 09:12:08;;;;;;;22.58;5.22;;;;;;;-144.73;100.00;54329.72;5084923;28;20085;-74
2023/06/01 09:14:34;;;;;;;26.52;6.45;;;;;;;-144.73;100.00;54333.81;5086430;28;20496;-74
2023/06/01 09:16:59;;;;;;;25.23;5.55;;;;;;;-144.73;100.00;54294.81;5096941;28;20039;-74
2023/06/01 09:19:46;;;;;;;23.27;5.13;;;;;;;-144.73;100.00;54284.56;5096021;28;20023;-74
2023/06/01 09:22:14;;;;;;;19.70;4.03;;;;;;;-144.73;100.00;54321.50;5096949;28;20405;-74
2023/06/01 09:24:42;;;;;;;25.30;5.32;;;;;;;-144.73;100.00;54337.91;5094152;28;20039;-75
2023/06/01 09:27:08;;;;;;;29.42;5.72;;;;;;;-144.73;100.00;54354.34;5089450;28;20035;-75
2023/06/01 09:29:33;;;;;;;34.83;5.80;;;;;;;-144.73;100.00;54317.38;5091689;28;20046;-74
2023/06/01 09:32:00;;;;;;;18.48;4.43;;;;;;;-144.73;100.00;54313.28;5092940;27;20048;-74
2023/06/01 09:34:25;;;;;;;18.98;5.40;;;;;;;-144.73;100.00;54321.50;5095670;28;20020;-75
2023/06/01 09:36:55;;;;;;;31.05;5.60;;;;;;;-144.73;100.00;54309.19;5097824;28;20383;-74
2023/06/01 09:39:24;;;;;;;28.52;5.63;;;;;;;-144.73;100.00;54292.75;5095208;28;20023;-74
2023/06/01 09:41:55;;;;;;;21.52;5.47;;;;;;;-144.73;97.17;54298.91;5097720;28;20028;-75
2023/06/01 09:44:25;;;;;;;20.67;4.45;;;;;;;-144.73;95.96;54315.34;5096889;28;20480;-75
2023/06/01 09:46:53;;;;;;;29.88;5.80;;;;;;;-144.73;95.10;54243.50;5092475;28;20036;-75
2023/06/01 09:49:24;;;;;;;29.33;4.75;;;;;;;-144.73;94.69;54337.91;5090317;28;20032;-76
2023/06/01 09:51:53;;;;;;;28.75;5.03;;;;;;;-144.73;95.07;54325.59;5089793;28;20127;-75
2023/06/01 09:54:27;;;;;;;20.02;5.10;;;;;;;-144.73;92.48;54325.59;5087523;28;20020;-75
2023/06/01 09:56:54;;;;;;;27.02;5.20;;;;;;;-144.73;93.17;54305.06;5081086;28;20056;-75
2023/06/01 09:59:21;;;;;;;23.30;4.72;;;;;;;-144.73;94.32;54313.28;5082765;28;20016;-75
2023/06/01 10:01:54;;;;;;;24.00;5.00;;;;;;;-144.73;94.33;54300.97;5087787;28;20032;-75
2023/06/01 10:04:27;;;;;;;29.08;5.40;;;;;;;-144.73;96.22;54325.59;5090196;28;20386;-74
2023/06/01 10:06:55;;;;;;;26.20;4.75;;;;;;;-144.73;94.44;54325.59;5108755;27;20570;-73
2023/06/01 10:09:26;;;;;;;34.67;5.72;;;;;;;-144.73;91.71;54288.66;5089111;28;20151;-75
2023/06/01 10:11:54;;;;;;;23.40;5.73;;;;;;;-144.73;92.41;54333.81;5089259;28;20115;-75
2023/06/01 10:14:23;;;;;;;27.38;5.35;;;;;;;-144.73;90.74;54296.88;5083486;28;20165;-75
2023/06/01 10:16:51;;;;;;;17.60;4.57;;;;;;;-144.73;89.39;54276.34;5083422;28;20044;-75
2023/06/01 10:19:17;;;;;;;27.23;5.28;;;;;;;-144.73;88.18;54321.50;5082026;28;20026;-75
2023/06/01 10:21:45;;;;;;;29.33;5.95;;;;;;;-144.73;90.40;54358.44;5084179;28;20032;-75
2023/06/01 10:24:11;;;;;;;19.10;5.03;;;;;;;-144.73;90.81;54259.91;5083441;28;20038;-75
2023/06/01 10:26:45;;;;;;;19.83;4.63;;;;;;;-144.73;87.79;54303.03;5080068;28;20028;-75
2023/06/01 10:29:11;;;;;;;19.95;5.82;;;;;;;-144.73;88.16;54313.28;5082224;28;20020;-75
2023/06/01 10:31:41;;;;;;;29.00;4.43;;;;;;;-144.73;86.71;54313.28;5091892;28;20047;-75
2023/06/01 10:34:08;;;;;;;22.13;4.35;;;;;;;-144.73;85.72;54321.50;5091745;28;20019;-75
2023/06/01 10:36:52;;;;;;;19.80;4.15;;;;;;;-144.73;83.37;54288.66;5088986;28;20035;-75
2023/06/01 10:39:29;;;;;;;16.55;4.15;;;;;;;-144.73;80.92;54294.81;5087583;28;20505;-75
2023/06/01 10:42:18;;;;;;;16.83;4.57;;;;;;;-144.73;82.49;54288.66;5090528;28;20119;-75
2023/06/01 10:44:50;;;;;;;18.00;4.70;;;;;;;-144.73;83.50;54300.97;5084405;28;20036;-76
2023/06/01 10:47:17;;;;;;;24.83;4.10;;;;;;;-144.73;81.04;54325.59;5095521;28;20039;-75
2023/06/01 10:50:05;;;;;;;16.30;4.57;;;;;;;-144.73;86.15;54296.88;5095289;28;20016;-74
2023/06/01 10:52:35;;;;;;;26.85;4.50;;;;;;;-144.73;83.07;54280.44;5093587;28;20039;-75
2023/06/01 10:55:10;;;;;;;20.75;4.22;;;;;;;-144.73;85.68;54292.75;5104803;28;20043;-74
2023/06/01 10:57:43;;;;;;;20.90;5.85;;;;;;;-144.73;83.35;54325.59;5088994;28;20529;-75
2023/06/01 11:00:15;;;;;;;32.80;5.53;;;;;;;-144.73;81.26;54329.72;5084165;28;20015;-77
2023/06/01 11:02:49;;;;;;;20.67;4.60;;;;;;;-144.73;81.39;54259.91;5093897;28;20028;-76